Time;durP1;ratioP1;P1;durP2;ratioP2;P2;SDS_P1;SDS_P2;PMS_P1;PMS_P2;Temp;Humidity;BMP_temperature;BMP_pressure;BME280_temperature;BME280_humidity;BME280_pressure;Samples;Min_cycle;Max_cycle;Signal;HPM_P1;HPM_P2
2022/11/17 00:00:19;;;;;;;8.73;2.17;;;11.90;92.90;;;;;;5064642;28;20075;-78
2022/11/17 00:02:46;;;;;;;9.38;3.13;;;11.90;92.90;;;;;;5051677;28;20147;-73
2022/11/17 00:05:12;;;;;;;8.75;2.30;;;12.00;92.90;;;;;;5056212;28;20059;-75
2022/11/17 00:07:38;;;;;;;5.25;2.33;;;12.00;92.80;;;;;;5049882;28;20120;-75
2022/11/17 00:10:04;;;;;;;7.60;2.28;;;12.00;92.70;;;;;;5051365;28;20456;-78
2022/11/17 00:15:14;;;;;;;8.07;2.10;;;12.10;92.50;;;;;;5052671;28;20488;-77
2022/11/17 00:17:40;;;;;;;9.68;2.33;;;12.00;92.30;;;;;;5049668;28;20045;-76
2022/11/17 00:22:50;;;;;;;10.38;2.92;;;12.00;92.20;;;;;;5052664;28;20052;-77
2022/11/17 00:25:16;;;;;;;12.82;3.00;;;12.00;92.20;;;;;;5052094;28;20029;-72
2022/11/17 00:27:41;;;;;;;13.30;3.22;;;12.10;92.20;;;;;;5055126;28;20033;-74
2022/11/17 00:30:07;;;;;;;14.55;3.30;;;12.10;91.90;;;;;;5054631;28;20061;-75
2022/11/17 00:35:17;;;;;;;11.20;2.57;;;11.90;91.80;;;;;;5054176;28;20099;-72
2022/11/17 00:38:14;;;;;;;13.48;2.80;;;11.90;91.90;;;;;;5049416;28;20282;-73
2022/11/17 00:40:29;;;;;;;9.98;2.88;;;11.90;91.90;;;;;;5050073;28;20060;-76
2022/11/17 00:42:54;;;;;;;15.93;3.47;;;12.00;91.80;;;;;;5054077;28;20148;-73
2022/11/17 00:45:20;;;;;;;12.88;3.35;;;12.00;91.90;;;;;;5064936;28;20532;-80
2022/11/17 00:47:47;;;;;;;12.85;2.83;;;12.00;91.80;;;;;;5052439;28;20067;-75
2022/11/17 00:50:12;;;;;;;16.52;3.63;;;12.10;91.60;;;;;;5057516;28;20048;-74
2022/11/17 00:52:38;;;;;;;17.90;4.03;;;12.10;91.10;;;;;;5054695;28;20040;-74
2022/11/17 00:55:04;;;;;;;17.50;3.35;;;12.10;90.90;;;;;;5056840;28;20120;-73
2022/11/17 00:57:30;;;;;;;16.13;3.40;;;12.10;90.70;;;;;;5051487;28;20052;-73
2022/11/17 00:59:55;;;;;;;16.58;3.47;;;12.10;90.50;;;;;;5059552;28;20036;-73
2022/11/17 01:02:21;;;;;;;19.02;4.40;;;12.10;90.10;;;;;;5054793;28;20047;-76
2022/11/17 01:04:46;;;;;;;19.58;3.70;;;12.20;89.90;;;;;;5049017;28;20516;-74
2022/11/17 01:07:12;;;;;;;19.30;4.25;;;12.20;89.60;;;;;;5050661;28;20101;-77
2022/11/17 01:09:38;;;;;;;23.45;4.18;;;12.20;89.30;;;;;;5054541;28;20056;-74
2022/11/17 01:12:04;;;;;;;17.08;3.67;;;12.20;89.30;;;;;;5050498;28;20476;-77
2022/11/17 01:14:31;;;;;;;18.92;5.47;;;12.20;89.10;;;;;;5051123;28;20103;-74
2022/11/17 01:16:57;;;;;;;15.90;3.50;;;12.20;88.70;;;;;;5053182;28;20043;-74
2022/11/17 01:19:23;;;;;;;16.95;3.65;;;12.20;88.50;;;;;;5047622;28;20044;-77
2022/11/17 01:21:49;;;;;;;23.23;3.95;;;12.20;88.40;;;;;;5050584;28;20044;-72
2022/11/17 01:24:15;;;;;;;15.77;4.38;;;12.20;87.90;;;;;;5048354;28;20037;-73
2022/11/17 01:26:42;;;;;;;19.33;4.50;;;12.20;87.60;;;;;;5052138;28;20029;-73
2022/11/17 01:29:11;;;;;;;18.67;3.28;;;12.30;87.50;;;;;;5048060;28;20029;-75
2022/11/17 01:31:39;;;;;;;23.95;5.05;;;12.30;87.20;;;;;;5050271;28;20136;-73
2022/11/17 01:34:06;;;;;;;19.90;4.03;;;12.30;87.60;;;;;;5049046;28;20388;-73
2022/11/17 01:39:18;;;;;;;18.83;5.40;;;12.10;88.40;;;;;;5043597;28;20122;-73
2022/11/17 01:41:44;;;;;;;23.65;5.13;;;12.10;89.00;;;;;;5048033;28;20435;-73
2022/11/17 01:44:35;;;;;;;17.05;3.95;;;12.00;89.50;;;;;;5053487;28;20044;-74
2022/11/17 01:47:10;;;;;;;17.67;4.13;;;12.00;89.80;;;;;;5050517;28;20029;-75
2022/11/17 01:49:36;;;;;;;22.95;5.03;;;11.90;89.80;;;;;;5049654;28;20037;-73
2022/11/17 01:52:06;;;;;;;17.70;4.78;;;11.90;90.00;;;;;;5048417;28;20148;-75
2022/11/17 01:54:36;;;;;;;18.73;4.05;;;11.90;90.10;;;;;;5048768;28;20036;-72
2022/11/17 01:57:11;;;;;;;17.52;4.07;;;11.80;90.20;;;;;;5050448;28;20507;-75
2022/11/17 01:59:44;;;;;;;16.02;4.22;;;11.80;90.40;;;;;;5048103;28;20045;-74
2022/11/17 02:02:09;;;;;;;19.85;4.57;;;11.80;90.50;;;;;;5046714;28;20032;-73
2022/11/17 02:04:52;;;;;;;24.77;6.10;;;11.80;90.60;;;;;;5047509;28;20029;-73
2022/11/17 02:07:25;;;;;;;23.77;5.10;;;11.80;90.50;;;;;;5047969;28;20037;-76
2022/11/17 02:09:54;;;;;;;19.13;3.70;;;11.80;90.50;;;;;;5062465;28;20025;-74
2022/11/17 02:12:22;;;;;;;23.23;5.20;;;11.80;90.40;;;;;;5045667;28;20029;-82
2022/11/17 02:14:49;;;;;;;18.75;3.75;;;11.90;90.40;;;;;;5052163;28;20082;-72
2022/11/17 02:17:17;;;;;;;24.80;4.93;;;12.00;90.00;;;;;;5049780;28;20029;-74
2022/11/17 02:19:49;;;;;;;16.45;4.35;;;12.00;89.90;;;;;;5053588;28;20037;-72
2022/11/17 02:22:46;;;;;;;28.13;4.50;;;12.00;89.90;;;;;;5044533;28;20033;-76
2022/11/17 02:25:43;;;;;;;17.50;4.65;;;12.00;89.90;;;;;;5011291;28;20042;-73
2022/11/17 02:28:28;;;;;;;25.33;4.47;;;12.00;89.90;;;;;;5020985;28;20082;-77
2022/11/17 02:31:02;;;;;;;;;;;12.00;89.90;;;;;;5044928;28;20464;-76
2022/11/17 02:33:54;;;;;;;25.08;5.00;;;12.00;90.10;;;;;;5045085;28;19921;-74
2022/11/17 02:36:48;;;;;;;16.58;3.88;;;11.90;90.20;;;;;;5047531;28;20037;-80
2022/11/17 02:39:22;;;;;;;21.95;4.70;;;12.00;90.40;;;;;;5047819;28;20460;-73
2022/11/17 02:41:57;;;;;;;21.52;3.95;;;11.90;91.10;;;;;;5050358;28;20123;-74
2022/11/17 02:44:35;;;;;;;21.60;4.40;;;11.80;91.60;;;;;;5044663;28;20427;-77
2022/11/17 02:47:26;;;;;;;20.33;4.90;;;11.80;91.90;;;;;;5045137;28;20404;-74
2022/11/17 02:50:05;;;;;;;15.60;4.25;;;11.80;92.10;;;;;;5051569;28;20048;-73
2022/11/17 02:52:31;;;;;;;15.85;4.32;;;11.70;92.30;;;;;;5046654;28;20029;-77
2022/11/17 02:55:06;;;;;;;17.13;4.28;;;11.70;92.40;;;;;;5050994;28;20055;-72
2022/11/17 02:57:34;;;;;;;20.65;4.50;;;11.70;92.60;;;;;;5049695;28;20024;-80
2022/11/17 03:00:08;;;;;;;20.17;4.28;;;11.60;92.70;;;;;;5050245;28;20464;-76
2022/11/17 03:02:52;;;;;;;20.17;4.90;;;11.60;92.60;;;;;;5049800;28;20487;-73
2022/11/17 03:05:42;;;;;;;15.75;4.25;;;11.60;92.60;;;;;;5048977;28;20284;-72
2022/11/17 03:08:29;;;;;;;18.77;4.30;;;11.60;92.50;;;;;;5045708;28;20473;-73
2022/11/17 03:11:01;;;;;;;18.38;4.20;;;11.70;92.40;;;;;;5050470;28;20473;-73
2022/11/17 03:13:52;;;;;;;22.90;4.28;;;11.60;92.30;;;;;;5053646;28;20039;-73
2022/11/17 03:16:27;;;;;;;15.93;4.25;;;11.60;92.20;;;;;;5048537;28;20207;-72
2022/11/17 03:19:18;;;;;;;16.85;3.53;;;11.70;92.10;;;;;;5051159;28;20435;-75
2022/11/17 03:21:49;;;;;;;17.02;3.65;;;11.60;92.00;;;;;;5050142;28;20380;-73
2022/11/17 03:24:32;;;;;;;16.55;4.05;;;11.60;91.90;;;;;;5063147;28;20029;-73
2022/11/17 03:27:16;;;;;;;16.35;3.67;;;11.60;91.80;;;;;;5055343;28;20090;-72
2022/11/17 03:29:45;;;;;;;14.38;3.50;;;11.60;91.70;;;;;;5058896;28;20037;-76
2022/11/17 03:32:13;;;;;;;16.48;3.63;;;11.60;91.60;;;;;;5051468;28;20076;-73
2022/11/17 03:34:48;;;;;;;18.30;3.75;;;11.60;91.50;;;;;;5054756;28;20465;-77
2022/11/17 03:37:16;;;;;;;;;;;11.60;91.50;;;;;;5050840;28;20044;-74
2022/11/17 03:39:48;;;;;;;12.90;2.75;;;11.60;91.20;;;;;;5048594;28;19920;-73
2022/11/17 03:42:18;;;;;;;10.27;2.53;;;11.60;91.00;;;;;;5051385;28;20033;-75
2022/11/17 03:44:49;;;;;;;14.15;3.40;;;11.60;90.80;;;;;;5052026;28;20064;-73
2022/11/17 03:47:18;;;;;;;13.73;2.95;;;11.60;90.60;;;;;;5051920;28;20376;-73
2022/11/17 03:49:49;;;;;;;12.70;2.50;;;11.60;90.30;;;;;;5061431;28;20068;-75
2022/11/17 03:52:15;;;;;;;11.13;2.47;;;11.60;89.60;;;;;;5062120;28;20052;-76
2022/11/17 03:54:41;;;;;;;9.70;2.22;;;11.60;89.30;;;;;;5054034;28;20025;-73
2022/11/17 03:57:44;;;;;;;10.55;1.85;;;11.60;89.30;;;;;;5049455;28;20147;-75
2022/11/17 04:00:14;;;;;;;10.77;2.70;;;11.50;89.50;;;;;;5005118;28;20034;-74
2022/11/17 04:02:42;;;;;;;8.88;2.10;;;11.50;89.70;;;;;;5042596;28;20072;-74
2022/11/17 04:05:09;;;;;;;13.50;2.80;;;11.50;90.00;;;;;;5058233;28;20020;-73
2022/11/17 04:07:39;;;;;;;7.40;1.90;;;11.40;90.20;;;;;;5053008;28;20506;-73
2022/11/17 04:10:05;;;;;;;7.28;2.03;;;11.40;90.40;;;;;;5066940;28;20105;-75
2022/11/17 04:15:55;;;;;;;8.48;1.88;;;11.20;90.10;;;;;;5052213;28;20095;-74
2022/11/17 04:18:16;;;;;;;8.20;1.60;;;11.20;89.80;;;;;;5056823;28;20024;-77
2022/11/17 04:20:43;;;;;;;4.68;1.63;;;11.10;89.40;;;;;;5056387;28;20064;-73
2022/11/17 04:23:12;;;;;;;8.02;1.95;;;11.10;89.40;;;;;;5057873;28;20059;-75
2022/11/17 04:28:44;;;;;;;3.30;1.40;;;11.00;88.90;;;;;;5049192;28;20047;-76
2022/11/17 04:31:15;;;;;;;5.43;1.63;;;11.10;88.90;;;;;;5056473;28;20037;-74
2022/11/17 04:33:43;;;;;;;3.75;1.45;;;11.10;88.70;;;;;;5049245;28;20044;-73
2022/11/17 04:36:11;;;;;;;5.40;1.65;;;11.10;88.50;;;;;;5049946;28;20029;-73
2022/11/17 04:38:41;;;;;;;4.45;1.80;;;11.10;88.50;;;;;;5051774;28;20057;-73
2022/11/17 04:43:53;;;;;;;5.20;1.48;;;11.10;88.20;;;;;;5050159;28;20051;-76
2022/11/17 04:46:20;;;;;;;5.57;1.52;;;11.10;88.40;;;;;;5068214;28;20060;-75
2022/11/17 04:48:47;;;;;;;4.80;1.30;;;11.00;88.60;;;;;;5066702;28;20080;-75
2022/11/17 04:51:13;;;;;;;5.78;1.45;;;11.00;88.70;;;;;;5051998;28;20102;-72
2022/11/17 04:53:39;;;;;;;5.28;1.40;;;11.00;88.70;;;;;;5054496;28;20094;-74
2022/11/17 04:56:05;;;;;;;5.50;1.60;;;11.00;88.60;;;;;;5048771;28;20029;-73
2022/11/17 04:58:31;;;;;;;4.50;1.55;;;11.00;88.50;;;;;;5051778;28;20029;-73
2022/11/17 05:01:11;;;;;;;3.60;1.50;;;11.00;88.70;;;;;;5049124;28;20029;-74
2022/11/17 05:03:50;;;;;;;7.22;1.48;;;10.90;88.90;;;;;;5049632;28;20067;-76
2022/11/17 05:06:21;;;;;;;5.80;1.67;;;10.90;89.40;;;;;;5045322;28;20112;-79
2022/11/17 05:08:47;;;;;;;5.88;1.73;;;10.90;89.60;;;;;;5042517;28;20052;-75
2022/11/17 05:13:59;;;;;;;3.67;1.40;;;10.80;89.90;;;;;;5054490;28;20063;-77
2022/11/17 05:19:21;;;;;;;3.30;1.30;;;10.70;89.90;;;;;;5050378;28;20044;-73
2022/11/17 05:21:47;;;;;;;4.18;1.20;;;10.80;90.00;;;;;;5051667;28;20047;-73
2022/11/17 05:24:13;;;;;;;4.13;1.55;;;10.70;90.10;;;;;;5047454;28;20044;-74
2022/11/17 05:26:41;;;;;;;7.60;2.22;;;10.70;90.00;;;;;;5044065;28;20120;-73
2022/11/17 05:29:07;;;;;;;8.02;1.98;;;10.70;90.20;;;;;;5051721;28;20071;-73
2022/11/17 05:31:33;;;;;;;7.13;2.20;;;10.70;90.20;;;;;;5048255;28;20068;-74
2022/11/17 05:34:00;;;;;;;6.30;2.13;;;10.70;90.20;;;;;;5051938;28;20452;-72
2022/11/17 05:36:27;;;;;;;7.60;2.40;;;10.70;90.30;;;;;;5047777;28;20033;-74
2022/11/17 05:38:53;;;;;;;8.93;2.42;;;10.70;90.30;;;;;;5041837;28;20037;-78
2022/11/17 05:41:20;;;;;;;12.27;2.20;;;10.70;90.50;;;;;;5045611;28;20076;-74
2022/11/17 05:43:46;;;;;;;7.63;2.17;;;10.70;90.50;;;;;;5052138;28;20036;-76
2022/11/17 05:46:12;;;;;;;8.35;1.70;;;10.60;90.60;;;;;;5051875;28;20079;-74
2022/11/17 05:48:38;;;;;;;10.95;2.65;;;10.60;90.60;;;;;;5046856;28;20081;-74
2022/11/17 05:51:04;;;;;;;4.93;1.67;;;10.60;90.60;;;;;;5043315;28;20079;-75
2022/11/17 05:53:30;;;;;;;9.70;1.98;;;10.60;90.60;;;;;;5051530;28;20036;-75
2022/11/17 05:56:28;;;;;;;8.55;2.15;;;10.60;90.50;;;;;;5041419;28;20392;-78
2022/11/17 05:59:37;;;;;;;9.70;2.67;;;10.60;90.60;;;;;;5048285;28;20449;-77
2022/11/17 06:02:13;;;;;;;9.82;2.33;;;10.60;90.60;;;;;;5038264;28;20052;-78
2022/11/17 06:04:39;;;;;;;9.18;1.98;;;10.60;90.70;;;;;;5044423;28;20048;-73
2022/11/17 06:07:05;;;;;;;9.82;2.22;;;10.60;90.80;;;;;;5047717;28;20082;-78
2022/11/17 06:09:33;;;;;;;12.98;2.70;;;10.60;90.70;;;;;;5051265;28;20041;-74
2022/11/17 06:11:59;;;;;;;9.93;2.50;;;10.60;90.80;;;;;;5044604;28;20130;-75
2022/11/17 06:14:24;;;;;;;10.23;2.72;;;10.60;90.80;;;;;;5052570;28;20036;-73
2022/11/17 06:16:55;;;;;;;13.07;2.95;;;10.60;90.80;;;;;;5047027;28;20041;-73
2022/11/17 06:19:29;;;;;;;12.57;2.78;;;10.60;90.70;;;;;;5050094;28;20029;-81
2022/11/17 06:21:55;;;;;;;10.00;2.17;;;10.60;90.60;;;;;;5050486;28;20045;-74
2022/11/17 06:24:21;;;;;;;11.38;2.85;;;10.60;90.70;;;;;;5047044;28;20135;-80
2022/11/17 06:26:47;;;;;;;14.88;3.05;;;10.60;90.70;;;;;;5047426;28;20032;-74
2022/11/17 06:29:14;;;;;;;9.13;2.33;;;10.60;90.70;;;;;;5047606;28;20044;-74
2022/11/17 06:31:41;;;;;;;15.98;3.47;;;10.60;90.80;;;;;;5044332;28;20045;-73
2022/11/17 06:34:07;;;;;;;11.77;2.97;;;10.60;90.90;;;;;;5040051;28;20032;-77
2022/11/17 06:36:33;;;;;;;13.15;3.22;;;10.60;91.10;;;;;;5047418;28;20060;-78
2022/11/17 06:38:59;;;;;;;15.73;3.20;;;10.60;91.20;;;;;;5053471;28;20152;-76
2022/11/17 06:41:24;;;;;;;11.75;2.22;;;10.50;91.20;;;;;;5052432;28;20426;-76
2022/11/17 06:43:50;;;;;;;10.32;2.50;;;10.60;91.30;;;;;;5052983;28;20040;-78
2022/11/17 06:46:16;;;;;;;11.35;2.90;;;10.50;91.30;;;;;;5044697;28;20067;-74
2022/11/17 06:48:41;;;;;;;12.70;2.97;;;10.50;91.30;;;;;;5056012;28;20119;-74
2022/11/17 06:51:07;;;;;;;12.43;3.85;;;10.50;91.30;;;;;;5054555;28;20071;-76
2022/11/17 06:53:33;;;;;;;14.07;3.53;;;10.50;91.30;;;;;;5073504;28;20044;-74
2022/11/17 06:56:03;;;;;;;14.43;3.80;;;10.50;91.40;;;;;;5052839;28;20054;-76
2022/11/17 06:58:29;;;;;;;14.20;3.85;;;10.50;91.60;;;;;;5054763;28;20033;-73
2022/11/17 07:01:04;;;;;;;13.27;3.80;;;10.50;91.60;;;;;;5050350;28;20832;-76
2022/11/17 07:03:32;;;;;;;13.75;3.55;;;10.50;91.70;;;;;;5049294;28;20029;-73
2022/11/17 07:06:00;;;;;;;14.25;3.88;;;10.50;91.90;;;;;;5048154;28;20040;-75
2022/11/17 07:08:26;;;;;;;17.38;3.78;;;10.40;91.90;;;;;;5046096;28;20035;-75
2022/11/17 07:10:53;;;;;;;15.20;3.70;;;10.40;92.10;;;;;;5052188;28;20426;-76
2022/11/17 07:13:23;;;;;;;14.63;3.20;;;10.40;92.20;;;;;;5048095;28;20041;-75
2022/11/17 07:15:50;;;;;;;11.32;3.20;;;10.40;92.20;;;;;;5053220;28;20727;-76
2022/11/17 07:18:19;;;;;;;11.93;2.97;;;10.40;92.30;;;;;;5061219;28;20169;-76
2022/11/17 07:20:46;;;;;;;10.52;2.75;;;10.40;92.20;;;;;;5047322;28;20040;-75
2022/11/17 07:23:13;;;;;;;10.77;2.50;;;10.30;92.10;;;;;;5051851;28;20032;-74
2022/11/17 07:25:39;;;;;;;8.90;2.80;;;10.40;92.10;;;;;;5048693;28;20064;-76
2022/11/17 07:28:05;;;;;;;9.77;2.40;;;10.30;92.10;;;;;;5055461;28;20056;-75
2022/11/17 07:30:31;;;;;;;9.30;2.60;;;10.30;91.90;;;;;;5045278;28;20431;-75
2022/11/17 07:32:59;;;;;;;9.38;2.72;;;10.30;91.80;;;;;;5049606;28;20048;-75
2022/11/17 07:35:25;;;;;;;9.80;2.45;;;10.30;91.80;;;;;;5050247;28;20041;-77
2022/11/17 07:37:55;;;;;;;8.02;2.40;;;10.30;91.80;;;;;;5054056;28;20032;-75
2022/11/17 07:40:21;;;;;;;10.77;2.72;;;10.40;91.90;;;;;;5040198;28;20036;-78
2022/11/17 07:42:49;;;;;;;9.00;2.60;;;10.40;91.80;;;;;;5045020;28;20036;-77
2022/11/17 07:45:15;;;;;;;8.30;2.22;;;10.40;91.80;;;;;;5047613;28;20088;-75
2022/11/17 07:47:41;;;;;;;12.20;3.50;;;10.40;91.80;;;;;;5047816;28;20045;-76
2022/11/17 07:50:07;;;;;;;7.38;2.38;;;10.40;91.80;;;;;;5044808;28;20502;-76
2022/11/17 07:52:33;;;;;;;10.05;3.35;;;10.30;91.80;;;;;;5046568;28;20036;-77
2022/11/17 07:54:59;;;;;;;14.60;4.13;;;10.40;91.80;;;;;;5045645;28;20469;-75
2022/11/17 07:57:27;;;;;;;8.38;2.83;;;10.40;91.70;;;;;;5055058;28;20057;-75
2022/11/17 07:59:53;;;;;;;10.75;4.22;;;10.40;91.70;;;;;;5055330;28;20473;-75
2022/11/17 08:02:19;;;;;;;10.82;3.42;;;10.40;91.60;;;;;;5053941;28;20082;-76
2022/11/17 08:04:44;;;;;;;10.48;3.20;;;10.40;91.50;;;;;;5063798;28;20041;-76
2022/11/17 08:07:10;;;;;;;11.70;3.28;;;10.40;91.40;;;;;;5055579;28;20820;-77
2022/11/17 08:09:35;;;;;;;12.27;4.00;;;10.40;91.30;;;;;;5055579;28;20028;-75
2022/11/17 08:12:01;;;;;;;10.93;2.78;;;10.40;91.20;;;;;;5049248;28;20068;-76
2022/11/17 08:14:27;;;;;;;11.13;3.35;;;10.50;91.10;;;;;;5049129;28;20115;-76
2022/11/17 08:16:53;;;;;;;9.07;2.65;;;10.40;91.20;;;;;;5050793;28;20489;-77
2022/11/17 08:19:19;;;;;;;9.15;3.13;;;10.50;91.00;;;;;;5051541;28;20075;-76
2022/11/17 08:21:45;;;;;;;13.52;3.58;;;10.50;91.00;;;;;;5057041;28;20040;-76
2022/11/17 08:24:11;;;;;;;11.82;3.30;;;10.50;90.90;;;;;;5049024;28;20573;-75
2022/11/17 08:26:37;;;;;;;13.27;3.60;;;10.50;90.70;;;;;;5046340;28;20047;-74
2022/11/17 08:29:03;;;;;;;7.65;2.55;;;10.50;90.70;;;;;;5046573;28;20102;-75
2022/11/17 08:31:30;;;;;;;10.65;2.42;;;10.50;90.60;;;;;;5052335;28;20557;-75
2022/11/17 08:33:56;;;;;;;11.10;3.25;;;10.50;90.50;;;;;;5048663;28;20423;-77
2022/11/17 08:36:22;;;;;;;11.98;3.00;;;10.50;90.60;;;;;;5049237;28;20108;-76
2022/11/17 08:38:48;;;;;;;14.10;3.30;;;10.50;90.40;;;;;;5055714;28;20392;-75
2022/11/17 08:41:14;;;;;;;10.40;2.88;;;10.50;90.30;;;;;;5053071;28;20036;-74
2022/11/17 08:43:40;;;;;;;12.38;3.38;;;10.60;90.20;;;;;;5050703;28;20029;-74
2022/11/17 08:46:11;;;;;;;13.73;3.38;;;10.60;90.20;;;;;;5067463;28;20036;-75
2022/11/17 08:48:36;;;;;;;11.52;3.15;;;10.60;90.30;;;;;;5050601;28;20083;-75
2022/11/17 08:51:07;;;;;;;10.05;3.10;;;10.60;90.20;;;;;;5052108;28;20380;-74
2022/11/17 08:53:33;;;;;;;8.05;2.83;;;10.60;90.10;;;;;;5049376;28;20029;-73
2022/11/17 08:55:59;;;;;;;12.32;2.40;;;10.60;89.90;;;;;;5052744;28;20091;-75
2022/11/17 08:58:25;;;;;;;9.20;2.75;;;10.60;89.60;;;;;;5055068;28;20040;-74
2022/11/17 09:00:50;;;;;;;7.32;2.40;;;10.60;89.50;;;;;;5039222;28;20477;-75
2022/11/17 09:03:16;;;;;;;6.63;2.95;;;10.60;89.40;;;;;;5049702;28;20477;-75
2022/11/17 09:05:45;;;;;;;9.60;2.33;;;10.60;89.30;;;;;;5049484;28;20045;-75
2022/11/17 09:08:13;;;;;;;8.13;2.25;;;10.70;89.10;;;;;;5055338;28;20604;-75
2022/11/17 09:10:39;;;;;;;6.65;2.28;;;10.70;89.10;;;;;;5059190;28;20055;-74
2022/11/17 09:13:05;;;;;;;8.90;2.33;;;10.70;89.20;;;;;;5051398;28;20045;-76
2022/11/17 09:15:32;;;;;;;9.90;2.50;;;10.70;89.30;;;;;;5053475;28;20135;-75
2022/11/17 09:17:58;;;;;;;6.80;2.30;;;10.60;89.70;;;;;;5059019;28;20053;-75
2022/11/17 09:20:23;;;;;;;8.65;2.67;;;10.70;89.90;;;;;;5049179;28;20036;-74
2022/11/17 09:22:49;;;;;;;6.47;2.75;;;10.60;90.20;;;;;;5058767;28;20039;-75
2022/11/17 09:25:15;;;;;;;9.85;2.63;;;10.60;90.40;;;;;;5056346;28;20433;-75
2022/11/17 09:27:41;;;;;;;6.68;2.40;;;10.60;90.40;;;;;;5067608;28;20199;-74
2022/11/17 09:30:08;;;;;;;8.32;2.60;;;10.60;90.50;;;;;;5048138;28;20151;-74
2022/11/17 09:32:34;;;;;;;6.40;2.30;;;10.60;90.60;;;;;;5052268;28;20053;-74
2022/11/17 09:35:00;;;;;;;10.27;2.58;;;10.60;90.60;;;;;;5050372;28;20095;-74
2022/11/17 09:37:27;;;;;;;11.60;2.53;;;10.60;90.40;;;;;;5056057;28;20033;-75
2022/11/17 09:39:53;;;;;;;8.10;2.35;;;10.70;90.40;;;;;;5047775;28;20448;-74
2022/11/17 09:42:19;;;;;;;6.95;2.30;;;10.60;90.30;;;;;;5048367;28;20480;-76
2022/11/17 09:44:48;;;;;;;6.38;2.22;;;10.70;90.30;;;;;;5049505;28;20037;-75
2022/11/17 09:47:17;;;;;;;8.20;2.63;;;10.70;90.10;;;;;;5051036;28;20454;-75
2022/11/17 09:49:51;;;;;;;10.57;2.55;;;10.70;89.90;;;;;;5051284;28;20041;-75
2022/11/17 09:52:29;;;;;;;7.70;2.20;;;10.80;89.60;;;;;;5049936;28;20049;-73
2022/11/17 09:54:57;;;;;;;8.80;2.35;;;10.90;89.40;;;;;;5047894;28;20048;-75
2022/11/17 09:57:44;;;;;;;7.25;2.58;;;10.90;89.20;;;;;;5050862;28;20116;-75
2022/11/17 10:00:22;;;;;;;8.73;2.88;;;11.00;89.10;;;;;;5047863;28;20060;-74
2022/11/17 10:02:49;;;;;;;6.63;2.50;;;11.00;88.90;;;;;;5047185;28;20348;-76
2022/11/17 10:05:26;;;;;;;8.88;2.67;;;11.00;88.90;;;;;;5064089;28;20041;-74
2022/11/17 10:07:53;;;;;;;8.52;2.28;;;11.10;88.80;;;;;;5043276;28;20028;-76
2022/11/17 10:10:26;;;;;;;9.48;2.67;;;11.10;88.70;;;;;;5051750;28;20481;-74
2022/11/17 10:12:56;;;;;;;10.50;2.80;;;11.10;88.70;;;;;;5041207;28;21099;-74
2022/11/17 10:15:29;;;;;;;8.40;2.53;;;11.10;88.60;;;;;;5045579;28;20044;-75
2022/11/17 10:17:55;;;;;;;8.60;2.38;;;11.10;88.30;;;;;;5050380;28;20868;-75
2022/11/17 10:20:21;;;;;;;9.98;2.60;;;11.10;88.20;;;;;;5045184;28;20044;-75
2022/11/17 10:22:48;;;;;;;6.35;2.38;;;11.10;88.20;;;;;;5054165;28;20404;-76
2022/11/17 10:25:42;;;;;;;8.52;2.72;;;11.10;88.10;;;;;;5049867;28;20392;-75
2022/11/17 10:28:22;;;;;;;9.43;3.03;;;11.10;88.00;;;;;;5044021;28;20032;-75
2022/11/17 10:30:58;;;;;;;8.10;2.78;;;11.20;87.90;;;;;;5047668;28;20395;-77
2022/11/17 10:33:42;;;;;;;8.50;2.55;;;11.30;87.90;;;;;;5049421;28;20421;-73
2022/11/17 10:36:34;;;;;;;7.85;2.90;;;11.20;87.80;;;;;;5048353;28;20075;-75
2022/11/17 10:39:00;;;;;;;8.98;3.22;;;11.20;87.50;;;;;;5065244;28;20461;-76
2022/11/17 10:41:36;;;;;;;7.43;2.30;;;11.40;87.60;;;;;;5046957;28;20049;-74
2022/11/17 10:44:16;;;;;;;5.93;2.15;;;11.30;87.30;;;;;;5042478;28;20406;-79
2022/11/17 10:46:54;;;;;;;7.82;2.22;;;11.30;87.30;;;;;;5045937;28;20028;-75
2022/11/17 10:49:24;;;;;;;7.38;2.42;;;11.40;86.90;;;;;;5043290;28;20069;-76
2022/11/17 10:52:16;;;;;;;5.45;1.95;;;11.40;87.00;;;;;;5046816;28;20087;-77
2022/11/17 10:54:42;;;;;;;11.00;3.50;;;11.30;87.20;;;;;;5051390;28;20037;-75
2022/11/17 10:57:20;;;;;;;10.40;3.65;;;11.30;87.50;;;;;;5054002;28;20075;-75
2022/11/17 10:59:48;;;;;;;11.02;3.88;;;11.60;87.70;;;;;;5050663;28;20578;-76
2022/11/17 11:02:27;;;;;;;9.55;4.13;;;11.70;87.30;;;;;;5052939;28;20099;-77
2022/11/17 11:05:07;;;;;;;10.88;4.00;;;11.80;86.70;;;;;;5057925;28;20433;-77
2022/11/17 11:07:34;;;;;;;9.75;3.38;;;12.00;85.60;;;;;;5045894;28;20037;-75
2022/11/17 11:10:16;;;;;;;7.93;3.13;;;12.00;84.50;;;;;;5045507;28;20025;-75
2022/11/17 11:12:58;;;;;;;10.85;3.65;;;12.10;84.70;;;;;;5041960;28;20049;-74
2022/11/17 11:15:31;;;;;;;6.70;2.67;;;12.10;84.70;;;;;;5042323;28;20168;-75
2022/11/17 11:17:57;;;;;;;5.32;2.28;;;12.10;84.40;;;;;;5044936;28;20030;-75
2022/11/17 11:20:48;;;;;;;11.20;4.65;;;12.00;84.80;;;;;;5050015;28;20041;-76
2022/11/17 11:23:28;;;;;;;10.35;5.15;;;11.90;85.20;;;;;;5050252;28;20033;-75
2022/11/17 11:26:02;;;;;;;9.02;4.28;;;11.80;85.30;;;;;;5047036;28;20044;-75
2022/11/17 11:28:53;;;;;;;11.18;4.28;;;12.00;85.70;;;;;;5048590;28;20034;-74
2022/11/17 11:31:27;;;;;;;6.57;2.10;;;12.10;85.20;;;;;;5051295;28;20045;-75
2022/11/17 11:34:14;;;;;;;7.15;2.88;;;12.10;84.80;;;;;;5050892;28;20041;-75
2022/11/17 11:37:06;;;;;;;9.48;2.70;;;12.10;84.70;;;;;;5052342;28;20843;-75
2022/11/17 11:39:50;;;;;;;7.53;1.92;;;12.10;84.00;;;;;;5043578;28;20041;-77
2022/11/17 11:42:42;;;;;;;3.38;1.65;;;12.10;83.80;;;;;;5048280;28;20037;-76
2022/11/17 11:45:21;;;;;;;7.88;2.17;;;12.20;83.70;;;;;;5050057;28;20419;-76
2022/11/17 11:48:14;;;;;;;6.80;2.95;;;12.20;83.30;;;;;;5052149;28;20036;-76
2022/11/17 11:50:53;;;;;;;6.20;2.33;;;12.20;82.70;;;;;;5053301;28;20053;-76
2022/11/17 11:53:28;;;;;;;5.28;2.17;;;12.30;82.80;;;;;;5056465;28;20029;-75
2022/11/17 11:56:07;;;;;;;6.72;2.20;;;12.30;82.40;;;;;;5058410;28;20033;-77
2022/11/17 11:58:33;;;;;;;12.27;2.25;;;12.30;82.60;;;;;;5071328;28;20401;-74
2022/11/17 12:01:05;;;;;;;4.60;1.90;;;12.30;82.40;;;;;;5053491;28;20074;-76
2022/11/17 12:03:53;;;;;;;9.38;2.45;;;12.20;82.90;;;;;;5048925;28;20032;-75
2022/11/17 12:06:39;;;;;;;6.03;2.20;;;12.30;83.00;;;;;;5048403;28;20045;-74
2022/11/17 12:09:42;;;;;;;6.55;2.30;;;12.20;83.50;;;;;;5046233;28;20032;-75
2022/11/17 12:12:14;;;;;;;5.68;2.20;;;12.20;83.20;;;;;;5042764;28;20524;-75
2022/11/17 12:15:18;;;;;;;6.60;2.20;;;12.20;83.10;;;;;;5053727;28;20044;-74
2022/11/17 12:18:27;;;;;;;6.35;2.30;;;12.20;83.30;;;;;;5053264;28;20041;-74
2022/11/17 12:20:59;;;;;;;5.55;2.00;;;12.30;83.40;;;;;;5056817;28;20040;-77
2022/11/17 12:23:47;;;;;;;6.35;2.00;;;12.30;83.30;;;;;;5061917;28;20033;-75
2022/11/17 12:26:27;;;;;;;5.63;1.98;;;12.20;83.60;;;;;;5069332;28;20091;-75
2022/11/17 12:29:19;;;;;;;5.85;2.10;;;12.40;83.60;;;;;;5049705;28;20045;-75
2022/11/17 12:31:50;;;;;;;5.47;2.00;;;12.50;82.80;;;;;;5041897;28;20075;-75
2022/11/17 12:34:19;;;;;;;7.38;2.30;;;12.60;82.60;;;;;;5052975;28;20044;-76
2022/11/17 12:37:04;;;;;;;6.00;2.65;;;12.70;82.80;;;;;;5047863;28;20063;-74
2022/11/17 12:39:51;;;;;;;5.95;2.47;;;13.00;82.40;;;;;;5049010;28;20051;-75
2022/11/17 12:42:17;;;;;;;7.15;2.40;;;13.00;81.50;;;;;;5052384;28;20033;-77
2022/11/17 12:44:49;;;;;;;6.70;2.58;;;13.00;81.20;;;;;;5050041;28;20063;-77
2022/11/17 12:47:19;;;;;;;8.10;2.58;;;12.90;81.30;;;;;;5047630;28;20040;-75
2022/11/17 12:50:06;;;;;;;6.18;1.98;;;12.90;81.40;;;;;;5054822;28;20036;-76
2022/11/17 12:52:37;;;;;;;5.88;2.47;;;12.90;81.20;;;;;;5052969;28;20144;-77
2022/11/17 12:55:31;;;;;;;5.72;2.20;;;13.00;81.60;;;;;;5062696;28;20400;-75
2022/11/17 12:58:21;;;;;;;4.88;1.95;;;13.10;81.10;;;;;;5065979;28;20380;-75
2022/11/17 13:01:07;;;;;;;5.55;1.88;;;13.10;80.40;;;;;;5051313;28;20029;-76
2022/11/17 13:03:53;;;;;;;8.63;2.92;;;13.10;80.50;;;;;;5059604;28;20035;-76
2022/11/17 13:06:19;;;;;;;7.10;2.45;;;13.10;80.40;;;;;;5048893;28;20464;-74
2022/11/17 13:09:06;;;;;;;8.60;2.47;;;13.10;80.30;;;;;;5052619;28;20054;-75
2022/11/17 13:11:32;;;;;;;7.22;2.28;;;13.10;80.20;;;;;;5051582;28;20075;-74
2022/11/17 13:14:15;;;;;;;9.32;2.70;;;13.10;80.20;;;;;;5054155;28;20044;-74
2022/11/17 13:16:49;;;;;;;9.95;3.22;;;13.00;80.00;;;;;;5048800;28;20067;-76
2022/11/17 13:19:32;;;;;;;13.32;6.18;;;13.00;80.40;;;;;;5049305;28;20032;-76
2022/11/17 13:22:12;;;;;;;9.88;3.10;;;13.10;80.30;;;;;;5046256;28;20116;-74
2022/11/17 13:24:40;;;;;;;7.20;2.40;;;13.30;79.80;;;;;;5050724;28;20416;-74
2022/11/17 13:27:18;;;;;;;11.38;4.43;;;13.40;78.90;;;;;;5048464;28;20041;-75
2022/11/17 13:29:44;;;;;;;16.02;6.70;;;13.40;79.20;;;;;;5052631;28;20549;-75
2022/11/17 13:32:22;;;;;;;10.45;2.60;;;13.30;79.10;;;;;;5051566;28;20098;-75